Time;durP1;ratioP1;P1;durP2;ratioP2;P2;SDS_P1;SDS_P2;PMS_P1;PMS_P2;Temp;Humidity;BMP_temperature;BMP_pressure;BME280_temperature;BME280_humidity;BME280_pressure;Samples;Min_cycle;Max_cycle;Signal;HPM_P1;HPM_P2
2021/08/06 00:01:15;;;;;;;;;3.67;2.67;;;;;;;;5121757;27;45154;-73
2021/08/06 00:03:40;;;;;;;;;3.33;3.00;;;;;;;;5121582;27;45280;-73
2021/08/06 00:06:06;;;;;;;;;4.00;4.00;;;;;;;;5121630;27;45267;-73
2021/08/06 00:08:32;;;;;;;;;5.00;3.67;;;;;;;;5121509;27;45526;-73
2021/08/06 00:10:57;;;;;;;;;5.00;4.00;;;;;;;;5121393;27;46232;-74
2021/08/06 00:13:23;;;;;;;;;4.67;1.33;;;;;;;;5121642;27;45272;-74
2021/08/06 00:15:48;;;;;;;;;4.00;4.00;;;;;;;;5121354;27;45329;-74
2021/08/06 00:18:13;;;;;;;;;3.00;3.00;;;;;;;;5121302;27;45398;-73
2021/08/06 00:20:39;;;;;;;;;2.67;2.67;;;;;;;;5121469;27;45351;-73
2021/08/06 00:23:06;;;;;;;;;2.67;2.67;;;;;;;;5121290;27;45287;-73
2021/08/06 00:25:31;;;;;;;;;2.67;2.67;;;;;;;;5121525;27;45269;-73
2021/08/06 00:27:57;;;;;;;;;4.00;4.00;;;;;;;;5121255;27;45300;-73
2021/08/06 00:30:22;;;;;;;;;5.67;3.67;;;;;;;;5130476;27;46309;-73
2021/08/06 00:32:48;;;;;;;;;4.67;4.67;;;;;;;;5141800;27;45253;-73
2021/08/06 00:35:13;;;;;;;;;3.33;3.00;;;;;;;;5142138;27;45823;-74
2021/08/06 00:37:39;;;;;;;;;3.33;2.33;;;;;;;;5141692;27;45216;-74
2021/08/06 00:40:04;;;;;;;;;4.00;3.00;;;;;;;;5141843;27;45985;-74
2021/08/06 00:42:30;;;;;;;;;4.33;4.33;;;;;;;;5141973;27;45325;-74
2021/08/06 00:44:55;;;;;;;;;3.67;2.33;;;;;;;;5141933;27;45295;-74
2021/08/06 00:47:21;;;;;;;;;1.00;1.00;;;;;;;;5141979;27;45412;-74
2021/08/06 00:49:46;;;;;;;;;4.00;2.00;;;;;;;;5141602;27;45346;-73
2021/08/06 00:52:12;;;;;;;;;3.00;3.00;;;;;;;;5141529;27;45218;-73
2021/08/06 00:54:37;;;;;;;;;5.00;5.00;;;;;;;;5140977;27;45316;-73
2021/08/06 00:57:03;;;;;;;;;2.33;2.33;;;;;;;;5141687;27;45542;-73
2021/08/06 00:59:28;;;;;;;;;4.00;3.33;;;;;;;;5141642;27;46126;-73
2021/08/06 01:02:00;;;;;;;;;4.00;3.00;;;;;;;;5140233;27;45373;-73
2021/08/06 01:04:31;;;;;;;;;3.00;3.00;;;;;;;;5141640;27;45803;-74
2021/08/06 01:07:05;;;;;;;;;3.00;3.00;;;;;;;;5141337;27;45261;-74
2021/08/06 01:09:37;;;;;;;;;2.00;2.00;;;;;;;;5141387;27;46227;-74
2021/08/06 01:12:08;;;;;;;;;4.67;3.00;;;;;;;;5141354;27;45328;-74
2021/08/06 01:14:36;;;;;;;;;4.00;3.00;;;;;;;;5141669;27;45237;-73
2021/08/06 01:17:02;;;;;;;;;4.67;4.00;;;;;;;;5141310;27;45470;-73
2021/08/06 01:19:31;;;;;;;;;2.67;2.67;;;;;;;;5141119;27;45385;-73
2021/08/06 01:22:13;;;;;;;;;2.67;2.67;;;;;;;;5141373;27;45163;-73
2021/08/06 01:24:40;;;;;;;;;2.00;2.00;;;;;;;;5141613;27;45342;-73
2021/08/06 01:27:05;;;;;;;;;3.67;3.67;;;;;;;;5141489;27;45322;-73
2021/08/06 01:29:31;;;;;;;;;5.00;4.67;;;;;;;;5139151;27;46068;-73
2021/08/06 01:31:56;;;;;;;;;4.33;3.00;;;;;;;;5120443;27;45268;-74
2021/08/06 01:34:21;;;;;;;;;4.00;4.00;;;;;;;;5120464;27;45254;-74
2021/08/06 01:36:47;;;;;;;;;2.33;2.33;;;;;;;;5120366;27;45264;-74
2021/08/06 01:39:12;;;;;;;;;4.00;4.00;;;;;;;;5120156;27;45224;-74
2021/08/06 01:41:37;;;;;;;;;4.00;2.33;;;;;;;;5120299;27;45214;-73
2021/08/06 01:44:21;;;;;;;;;3.00;3.00;;;;;;;;5120673;27;45284;-73
2021/08/06 01:46:59;;;;;;;;;3.00;3.00;;;;;;;;5120298;27;45220;-73
2021/08/06 01:49:28;;;;;;;;;4.67;3.00;;;;;;;;5120113;27;45244;-73
2021/08/06 01:52:03;;;;;;;;;2.00;2.00;;;;;;;;5120059;27;45351;-72
2021/08/06 01:54:29;;;;;;;;;2.00;2.00;;;;;;;;5120405;27;45285;-72
2021/08/06 01:56:55;;;;;;;;;5.00;4.00;;;;;;;;5120140;27;45315;-73
2021/08/06 01:59:21;;;;;;;;;5.00;3.00;;;;;;;;5120149;27;46139;-74
2021/08/06 02:01:46;;;;;;;;;4.33;3.00;;;;;;;;5120114;27;45256;-74
2021/08/06 02:04:13;;;;;;;;;4.00;4.00;;;;;;;;5120132;27;45215;-74
2021/08/06 02:06:38;;;;;;;;;2.00;2.00;;;;;;;;5121833;27;45540;-74
2021/08/06 02:09:03;;;;;;;;;4.33;3.33;;;;;;;;5123414;27;45268;-73
2021/08/06 02:11:29;;;;;;;;;3.00;3.00;;;;;;;;5123440;27;45286;-73
2021/08/06 02:13:54;;;;;;;;;3.67;3.67;;;;;;;;5123707;27;45303;-74
2021/08/06 02:16:23;;;;;;;;;4.00;4.00;;;;;;;;5123236;27;45353;-73
2021/08/06 02:18:49;;;;;;;;;4.67;4.67;;;;;;;;5123176;27;45386;-73
2021/08/06 02:21:16;;;;;;;;;4.67;4.00;;;;;;;;5123223;27;45374;-72
2021/08/06 02:23:48;;;;;;;;;4.00;4.00;;;;;;;;5123537;27;45253;-73
2021/08/06 02:26:15;;;;;;;;;5.33;4.33;;;;;;;;5123174;27;45535;-72
2021/08/06 02:28:41;;;;;;;;;3.00;3.00;;;;;;;;5123245;27;46231;-74
2021/08/06 02:31:07;;;;;;;;;3.00;2.00;;;;;;;;5138600;27;45298;-74
2021/08/06 02:33:33;;;;;;;;;2.33;2.33;;;;;;;;5143771;27;45128;-74
2021/08/06 02:35:58;;;;;;;;;3.00;3.00;;;;;;;;5143916;27;45438;-73
2021/08/06 02:38:24;;;;;;;;;3.00;3.00;;;;;;;;5143454;27;45917;-74
2021/08/06 02:40:51;;;;;;;;;6.00;5.00;;;;;;;;5143883;27;45260;-73
2021/08/06 02:43:17;;;;;;;;;4.00;4.00;;;;;;;;5143906;27;45482;-73
2021/08/06 02:45:43;;;;;;;;;7.00;4.33;;;;;;;;5143761;27;45341;-73
2021/08/06 02:48:09;;;;;;;;;3.00;3.00;;;;;;;;5143419;27;45338;-73
2021/08/06 02:50:34;;;;;;;;;5.00;5.00;;;;;;;;5143710;27;45247;-73
2021/08/06 02:52:59;;;;;;;;;4.33;3.00;;;;;;;;5143669;27;45243;-73
2021/08/06 02:55:25;;;;;;;;;4.00;4.00;;;;;;;;5143809;27;45263;-73
2021/08/06 02:57:50;;;;;;;;;3.67;3.67;;;;;;;;5143494;27;46323;-73
2021/08/06 03:00:15;;;;;;;;;4.00;3.00;;;;;;;;5143692;27;45355;-73
2021/08/06 03:02:41;;;;;;;;;3.00;3.00;;;;;;;;5143384;27;45332;-73
2021/08/06 03:05:06;;;;;;;;;4.67;4.67;;;;;;;;5143479;27;45293;-74
2021/08/06 03:07:32;;;;;;;;;3.00;3.00;;;;;;;;5143052;27;46067;-73
2021/08/06 03:09:57;;;;;;;;;3.67;3.00;;;;;;;;5143448;27;45195;-74
2021/08/06 03:12:22;;;;;;;;;2.67;2.67;;;;;;;;5143447;27;45180;-73
2021/08/06 03:14:48;;;;;;;;;2.00;2.00;;;;;;;;5143379;27;45265;-74
2021/08/06 03:17:13;;;;;;;;;4.33;4.00;;;;;;;;5142272;27;45404;-72
2021/08/06 03:19:39;;;;;;;;;2.00;2.00;;;;;;;;5143185;27;45172;-73
2021/08/06 03:22:04;;;;;;;;;2.00;2.00;;;;;;;;5143251;27;45473;-72
2021/08/06 03:24:29;;;;;;;;;3.33;3.33;;;;;;;;5143160;27;45224;-73
2021/08/06 03:26:55;;;;;;;;;3.67;3.00;;;;;;;;5143167;27;46333;-74
2021/08/06 03:29:20;;;;;;;;;3.33;3.33;;;;;;;;5142684;27;45215;-72
2021/08/06 03:31:45;;;;;;;;;2.33;2.33;;;;;;;;5122494;27;45376;-73
2021/08/06 03:34:11;;;;;;;;;3.00;3.00;;;;;;;;5122034;27;45455;-74
2021/08/06 03:36:37;;;;;;;;;3.33;3.00;;;;;;;;5122070;27;46010;-74
2021/08/06 03:39:03;;;;;;;;;2.00;1.00;;;;;;;;5121858;27;45334;-74
2021/08/06 03:41:28;;;;;;;;;4.67;4.67;;;;;;;;5122144;27;45334;-74
2021/08/06 03:43:53;;;;;;;;;3.67;3.67;;;;;;;;5122119;27;45403;-75
2021/08/06 03:46:19;;;;;;;;;1.67;1.67;;;;;;;;5120751;27;45390;-72
2021/08/06 03:48:44;;;;;;;;;3.00;3.00;;;;;;;;5121907;27;45319;-73
2021/08/06 03:51:09;;;;;;;;;1.67;1.67;;;;;;;;5121984;27;45312;-72
2021/08/06 03:53:35;;;;;;;;;1.67;1.00;;;;;;;;5121901;27;45381;-72
2021/08/06 03:56:00;;;;;;;;;2.33;2.33;;;;;;;;5121905;27;45299;-73
2021/08/06 03:58:25;;;;;;;;;2.00;2.00;;;;;;;;5121892;27;45270;-73
2021/08/06 04:00:51;;;;;;;;;3.00;3.00;;;;;;;;5122144;27;45207;-73
2021/08/06 04:03:16;;;;;;;;;5.67;3.33;;;;;;;;5121435;27;45529;-74
2021/08/06 04:05:41;;;;;;;;;9.00;9.00;;;;;;;;5121647;27;45232;-74
2021/08/06 04:08:08;;;;;;;;;4.00;3.00;;;;;;;;5121518;27;45317;-74
2021/08/06 04:10:33;;;;;;;;;5.00;3.33;;;;;;;;5121738;27;45323;-74
2021/08/06 04:12:59;;;;;;;;;1.67;1.67;;;;;;;;5121417;27;45268;-74
2021/08/06 04:15:24;;;;;;;;;6.33;4.00;;;;;;;;5121437;27;46554;-72
2021/08/06 04:17:49;;;;;;;;;3.00;3.00;;;;;;;;5121122;27;45228;-73
2021/08/06 04:20:15;;;;;;;;;3.00;3.00;;;;;;;;5121849;27;45292;-73
2021/08/06 04:22:40;;;;;;;;;3.67;3.67;;;;;;;;5121318;27;45260;-73
2021/08/06 04:25:06;;;;;;;;;3.67;3.67;;;;;;;;5121424;27;46066;-73
2021/08/06 04:27:32;;;;;;;;;2.00;2.00;;;;;;;;5121310;27;45659;-72
2021/08/06 04:29:57;;;;;;;;;1.67;1.67;;;;;;;;5123789;27;45465;-72
2021/08/06 04:32:22;;;;;;;;;2.67;2.67;;;;;;;;5141827;27;45304;-72
2021/08/06 04:34:48;;;;;;;;;2.00;2.00;;;;;;;;5142026;27;45351;-73
2021/08/06 04:37:13;;;;;;;;;3.00;3.00;;;;;;;;5141801;27;45234;-75
2021/08/06 04:39:38;;;;;;;;;3.00;3.00;;;;;;;;5142010;27;45408;-74
2021/08/06 04:42:04;;;;;;;;;2.33;2.33;;;;;;;;5141881;27;45474;-73
2021/08/06 04:44:34;;;;;;;;;3.00;2.33;;;;;;;;5141901;27;45445;-74
2021/08/06 04:46:59;;;;;;;;;3.00;2.67;;;;;;;;5141986;27;45291;-73
2021/08/06 04:49:25;;;;;;;;;4.00;4.00;;;;;;;;5141902;27;45251;-73
2021/08/06 04:51:50;;;;;;;;;3.00;3.00;;;;;;;;5141604;27;45158;-73
2021/08/06 04:54:15;;;;;;;;;4.00;3.00;;;;;;;;5141874;27;45461;-73
2021/08/06 04:56:40;;;;;;;;;2.33;2.33;;;;;;;;5141950;27;45216;-73
2021/08/06 04:59:06;;;;;;;;;3.00;2.67;;;;;;;;5141923;27;45395;-73
2021/08/06 05:01:31;;;;;;;;;2.67;1.33;;;;;;;;5141660;27;45346;-74
2021/08/06 05:03:57;;;;;;;;;2.00;1.33;;;;;;;;5141373;27;45370;-74
2021/08/06 05:06:22;;;;;;;;;3.33;2.67;;;;;;;;5140079;27;45389;-73
2021/08/06 05:08:49;;;;;;;;;1.33;1.33;;;;;;;;5140216;27;45386;-73
2021/08/06 05:11:17;;;;;;;;;1.00;1.00;;;;;;;;5141401;27;45450;-74
2021/08/06 05:13:42;;;;;;;;;2.00;1.00;;;;;;;;5141392;27;46285;-72
2021/08/06 05:16:08;;;;;;;;;3.00;2.00;;;;;;;;5116904;27;45281;-72
2021/08/06 05:18:34;;;;;;;;;2.00;2.00;;;;;;;;5110425;27;45332;-73
2021/08/06 05:20:59;;;;;;;;;3.00;3.00;;;;;;;;5105152;27;45359;-74
2021/08/06 05:23:25;;;;;;;;;1.67;1.67;;;;;;;;5099819;27;45993;-74
2021/08/06 05:25:50;;;;;;;;;2.33;1.00;;;;;;;;5100026;27;45332;-74
2021/08/06 05:28:15;;;;;;;;;3.00;2.33;;;;;;;;5098673;27;45385;-74
2021/08/06 05:30:41;;;;;;;;;2.00;2.00;;;;;;;;5123526;27;45748;-73
2021/08/06 05:33:06;;;;;;;;;2.67;2.67;;;;;;;;5139567;27;47982;-73
2021/08/06 05:35:32;;;;;;;;;1.67;1.67;;;;;;;;5119538;27;45418;-74
2021/08/06 05:37:57;;;;;;;;;3.67;2.33;;;;;;;;5120429;27;45288;-74
2021/08/06 05:40:22;;;;;;;;;3.00;2.00;;;;;;;;5120704;27;45536;-73
2021/08/06 05:42:48;;;;;;;;;3.33;1.67;;;;;;;;5124018;27;46589;-73
2021/08/06 05:45:14;;;;;;;;;1.67;1.67;;;;;;;;5124029;27;45361;-73
2021/08/06 05:47:42;;;;;;;;;1.67;1.67;;;;;;;;5123913;27;45370;-73
2021/08/06 05:50:08;;;;;;;;;1.33;1.33;;;;;;;;5116202;27;45314;-73
2021/08/06 05:52:33;;;;;;;;;1.00;0.33;;;;;;;;5102646;27;45538;-73
2021/08/06 05:54:59;;;;;;;;;2.67;2.00;;;;;;;;5106324;27;45202;-73
2021/08/06 05:57:24;;;;;;;;;1.00;1.00;;;;;;;;5111178;27;45243;-73
2021/08/06 05:59:49;;;;;;;;;3.00;1.67;;;;;;;;5112141;27;45583;-73
2021/08/06 06:02:14;;;;;;;;;1.33;0.67;;;;;;;;5112339;27;45440;-74
2021/08/06 06:04:40;;;;;;;;;3.00;2.00;;;;;;;;5110675;27;45320;-73
2021/08/06 06:07:05;;;;;;;;;2.67;2.67;;;;;;;;5112757;27;45262;-74
2021/08/06 06:09:30;;;;;;;;;2.00;2.00;;;;;;;;5111519;27;45663;-73
2021/08/06 06:11:56;;;;;;;;;2.00;2.00;;;;;;;;5111112;27;46181;-74
2021/08/06 06:14:21;;;;;;;;;2.00;2.00;;;;;;;;5112651;27;45346;-74
2021/08/06 06:16:46;;;;;;;;;1.67;1.67;;;;;;;;5110916;27;45278;-75
2021/08/06 06:19:12;;;;;;;;;2.00;1.00;;;;;;;;5111213;27;45356;-74
2021/08/06 06:21:37;;;;;;;;;1.67;1.67;;;;;;;;5112655;27;45401;-75
2021/08/06 06:24:02;;;;;;;;;1.00;1.00;;;;;;;;5107485;27;45365;-74
2021/08/06 06:26:28;;;;;;;;;2.00;2.00;;;;;;;;5102289;27;45372;-74
2021/08/06 06:28:53;;;;;;;;;2.67;2.00;;;;;;;;5103057;27;45307;-74
2021/08/06 06:31:19;;;;;;;;;2.33;1.33;;;;;;;;5113227;27;45316;-73
2021/08/06 06:33:44;;;;;;;;;1.00;1.00;;;;;;;;5107680;27;45286;-74
2021/08/06 06:36:09;;;;;;;;;1.00;1.00;;;;;;;;5102665;27;45277;-73
2021/08/06 06:38:35;;;;;;;;;1.33;1.00;;;;;;;;5102322;27;45443;-74
2021/08/06 06:41:00;;;;;;;;;2.00;1.00;;;;;;;;5108947;27;45452;-74
2021/08/06 06:43:25;;;;;;;;;3.00;2.67;;;;;;;;5112311;27;45400;-73
2021/08/06 06:45:51;;;;;;;;;3.00;1.33;;;;;;;;5112888;27;45561;-75
2021/08/06 06:48:16;;;;;;;;;1.00;1.00;;;;;;;;5109982;27;45560;-74
2021/08/06 06:50:41;;;;;;;;;0.33;0.33;;;;;;;;5112105;27;45273;-77
2021/08/06 06:53:07;;;;;;;;;1.00;1.00;;;;;;;;5112198;27;45310;-78
2021/08/06 06:55:32;;;;;;;;;1.00;1.00;;;;;;;;5110420;27;45265;-74
2021/08/06 06:57:58;;;;;;;;;1.00;1.00;;;;;;;;5123395;27;45445;-74
2021/08/06 07:00:24;;;;;;;;;1.00;1.00;;;;;;;;5123142;27;45970;-75
2021/08/06 07:02:50;;;;;;;;;1.00;1.00;;;;;;;;5122898;27;45215;-74
2021/08/06 07:05:15;;;;;;;;;2.00;1.33;;;;;;;;5122855;27;45257;-75
2021/08/06 07:07:41;;;;;;;;;2.00;2.00;;;;;;;;5122778;27;45251;-74
2021/08/06 07:10:09;;;;;;;;;2.00;2.00;;;;;;;;5122689;27;45390;-74
2021/08/06 07:12:35;;;;;;;;;1.00;1.00;;;;;;;;5122571;27;45399;-73
2021/08/06 07:15:03;;;;;;;;;0.67;0.67;;;;;;;;5122952;27;45320;-75
2021/08/06 07:17:29;;;;;;;;;1.00;1.00;;;;;;;;5116801;27;45284;-74
2021/08/06 07:19:54;;;;;;;;;0.67;0.67;;;;;;;;5111891;27;45354;-75
2021/08/06 07:22:19;;;;;;;;;1.67;1.67;;;;;;;;5110342;27;45462;-73
2021/08/06 07:24:45;;;;;;;;;1.00;1.00;;;;;;;;5112412;27;45580;-75
2021/08/06 07:27:10;;;;;;;;;3.67;1.33;;;;;;;;5112445;27;45198;-75
2021/08/06 07:29:36;;;;;;;;;0.00;0.00;;;;;;;;5116221;27;45962;-74
2021/08/06 07:32:01;;;;;;;;;1.00;1.00;;;;;;;;5143172;27;45376;-75
2021/08/06 07:34:26;;;;;;;;;2.67;2.67;;;;;;;;5127345;27;45782;-75
2021/08/06 07:36:52;;;;;;;;;1.00;1.00;;;;;;;;5115497;27;45420;-76
2021/08/06 07:39:17;;;;;;;;;3.33;2.00;;;;;;;;5105952;27;45994;-76
2021/08/06 07:41:42;;;;;;;;;2.00;2.00;;;;;;;;5101656;27;45321;-76
2021/08/06 07:44:08;;;;;;;;;2.00;0.00;;;;;;;;5107791;27;45355;-76
2021/08/06 07:46:33;;;;;;;;;3.00;3.00;;;;;;;;5119044;27;45238;-76
2021/08/06 07:48:58;;;;;;;;;1.00;1.00;;;;;;;;5114141;27;45889;-77
2021/08/06 07:51:24;;;;;;;;;1.00;1.00;;;;;;;;5123727;27;45288;-76
2021/08/06 07:53:49;;;;;;;;;2.00;1.00;;;;;;;;5133882;27;45309;-75
2021/08/06 07:56:15;;;;;;;;;1.00;1.00;;;;;;;;5122405;27;45528;-75
2021/08/06 07:58:41;;;;;;;;;1.00;0.33;;;;;;;;5122841;27;45368;-75
2021/08/06 08:01:06;;;;;;;;;1.00;1.00;;;;;;;;5121840;27;45264;-75
2021/08/06 08:03:32;;;;;;;;;1.00;1.00;;;;;;;;5121513;27;45989;-75
2021/08/06 08:05:58;;;;;;;;;3.00;3.00;;;;;;;;5119936;27;45201;-77
2021/08/06 08:08:23;;;;;;;;;2.67;2.67;;;;;;;;5108194;27;46149;-75
2021/08/06 08:10:48;;;;;;;;;2.00;1.00;;;;;;;;5123645;27;45371;-77
2021/08/06 08:13:14;;;;;;;;;1.00;1.00;;;;;;;;5109385;27;45874;-78
2021/08/06 08:15:39;;;;;;;;;1.33;1.33;;;;;;;;5112606;27;45223;-79
2021/08/06 08:18:05;;;;;;;;;1.00;1.00;;;;;;;;5113278;27;46404;-75
2021/08/06 08:20:30;;;;;;;;;1.00;0.67;;;;;;;;5104242;27;46792;-75
2021/08/06 08:22:56;;;;;;;;;1.67;0.67;;;;;;;;5109854;27;45600;-75
2021/08/06 08:25:21;;;;;;;;;1.00;1.00;;;;;;;;5108653;27;45834;-75
2021/08/06 08:27:46;;;;;;;;;2.00;2.00;;;;;;;;5109364;27;46056;-76
2021/08/06 08:30:12;;;;;;;;;3.00;1.00;;;;;;;;5112995;27;45602;-76
2021/08/06 08:32:38;;;;;;;;;1.67;1.67;;;;;;;;5110137;27;45553;-75
2021/08/06 08:35:04;;;;;;;;;2.00;1.33;;;;;;;;5108717;27;45400;-76
2021/08/06 08:37:29;;;;;;;;;0.67;0.00;;;;;;;;5108918;27;46177;-76
2021/08/06 08:39:55;;;;;;;;;1.00;1.00;;;;;;;;5107575;27;45690;-74
2021/08/06 08:42:23;;;;;;;;;0.67;0.67;;;;;;;;5121490;27;45547;-74
2021/08/06 08:44:49;;;;;;;;;1.00;0.67;;;;;;;;5120814;27;45295;-76
2021/08/06 08:47:20;;;;;;;;;1.00;1.00;;;;;;;;5121569;27;46142;-76
2021/08/06 08:49:47;;;;;;;;;0.67;0.33;;;;;;;;5121779;27;45301;-75
2021/08/06 08:52:13;;;;;;;;;0.00;0.00;;;;;;;;5111304;27;45288;-75
2021/08/06 08:54:38;;;;;;;;;1.00;1.00;;;;;;;;5116891;27;45318;-74
2021/08/06 08:57:04;;;;;;;;;2.33;1.67;;;;;;;;5106834;27;45417;-74
2021/08/06 08:59:30;;;;;;;;;1.33;1.33;;;;;;;;5098214;27;45302;-73
2021/08/06 09:01:55;;;;;;;;;4.00;1.00;;;;;;;;5104026;27;45903;-73
2021/08/06 09:04:25;;;;;;;;;1.67;0.67;;;;;;;;5099702;27;45706;-73
2021/08/06 09:06:51;;;;;;;;;2.00;1.33;;;;;;;;5106580;27;45853;-73
2021/08/06 09:09:20;;;;;;;;;2.00;2.00;;;;;;;;5120941;27;45179;-74
2021/08/06 09:11:46;;;;;;;;;0.00;0.00;;;;;;;;5120867;27;45229;-73
2021/08/06 09:14:24;;;;;;;;;0.33;0.33;;;;;;;;5120510;27;45424;-73
2021/08/06 09:16:55;;;;;;;;;1.00;1.00;;;;;;;;5123037;27;46085;-73
2021/08/06 09:19:21;;;;;;;;;5.00;0.00;;;;;;;;5125156;27;45286;-75
2021/08/06 09:21:46;;;;;;;;;0.33;0.33;;;;;;;;5120565;27;45388;-75
2021/08/06 09:24:12;;;;;;;;;4.00;2.00;;;;;;;;5117177;27;46357;-78
2021/08/06 09:26:40;;;;;;;;;0.00;0.00;;;;;;;;5114048;27;46063;-78
2021/08/06 09:29:11;;;;;;;;;0.67;0.67;;;;;;;;5115681;27;45869;-75
2021/08/06 09:31:38;;;;;;;;;0.00;0.00;;;;;;;;5120777;27;45393;-77
2021/08/06 09:34:11;;;;;;;;;1.00;1.00;;;;;;;;5120248;27;45307;-76
2021/08/06 09:36:36;;;;;;;;;2.00;2.00;;;;;;;;5122446;27;45569;-76
2021/08/06 09:39:12;;;;;;;;;0.00;0.00;;;;;;;;5116288;27;45384;-76
2021/08/06 09:41:38;;;;;;;;;1.33;1.33;;;;;;;;5119737;27;45641;-78
2021/08/06 09:44:17;;;;;;;;;2.67;1.00;;;;;;;;5122456;27;45522;-76
2021/08/06 09:46:46;;;;;;;;;0.33;0.00;;;;;;;;5118736;27;47231;-76
2021/08/06 09:49:11;;;;;;;;;0.00;0.00;;;;;;;;5118790;27;45791;-75
2021/08/06 09:51:37;;;;;;;;;0.00;0.00;;;;;;;;5116113;27;45465;-76
2021/08/06 09:54:16;;;;;;;;;0.33;0.00;;;;;;;;5125598;27;45519;-75
2021/08/06 09:56:41;;;;;;;;;0.00;0.00;;;;;;;;5108956;27;45559;-73
2021/08/06 09:59:06;;;;;;;;;1.00;1.00;;;;;;;;5125969;27;45126;-75
2021/08/06 10:01:32;;;;;;;;;1.00;0.33;;;;;;;;5124122;27;45283;-75
2021/08/06 10:04:11;;;;;;;;;1.00;0.00;;;;;;;;5127465;27;45191;-76
2021/08/06 10:06:36;;;;;;;;;0.00;0.00;;;;;;;;5130914;27;45615;-75
2021/08/06 10:09:02;;;;;;;;;1.00;1.00;;;;;;;;5127970;27;45466;-76
2021/08/06 10:11:27;;;;;;;;;1.00;1.00;;;;;;;;5132267;27;45329;-76
2021/08/06 10:13:53;;;;;;;;;0.00;0.00;;;;;;;;5134488;27;45420;-76
2021/08/06 10:16:19;;;;;;;;;6.33;4.67;;;;;;;;5135132;27;45351;-76
2021/08/06 10:18:44;;;;;;;;;2.00;0.67;;;;;;;;5130943;27;45293;-73
2021/08/06 10:21:10;;;;;;;;;2.00;2.00;;;;;;;;5133817;27;44708;-75
2021/08/06 10:23:36;;;;;;;;;2.00;1.67;;;;;;;;5118521;27;45313;-75
2021/08/06 10:26:04;;;;;;;;;0.00;0.00;;;;;;;;5126832;27;46205;-75
2021/08/06 10:28:31;;;;;;;;;2.00;1.00;;;;;;;;5134382;27;45363;-76
2021/08/06 10:31:15;;;;;;;;;0.00;0.00;;;;;;;;5115876;27;45343;-76
2021/08/06 10:34:00;;;;;;;;;2.67;2.33;;;;;;;;5126120;27;45271;-74
2021/08/06 10:36:36;;;;;;;;;6.00;6.00;;;;;;;;5131935;27;46205;-76
2021/08/06 10:39:02;;;;;;;;;5.33;5.33;;;;;;;;5123523;27;45392;-75
2021/08/06 10:41:47;;;;;;;;;5.33;4.00;;;;;;;;5118781;27;45407;-76
2021/08/06 10:44:12;;;;;;;;;2.33;2.00;;;;;;;;5123724;27;45278;-74
2021/08/06 10:46:54;;;;;;;;;1.33;1.00;;;;;;;;5108085;27;45455;-75
2021/08/06 10:49:19;;;;;;;;;0.67;0.00;;;;;;;;5101458;27;45575;-73
2021/08/06 10:51:45;;;;;;;;;1.00;0.33;;;;;;;;5109540;27;46305;-74
2021/08/06 10:54:24;;;;;;;;;0.33;0.00;;;;;;;;5113658;27;45696;-74
2021/08/06 10:57:09;;;;;;;;;0.33;0.33;;;;;;;;5115363;27;46082;-75
2021/08/06 10:59:39;;;;;;;;;1.00;1.00;;;;;;;;5115620;27;45358;-73
2021/08/06 11:02:04;;;;;;;;;1.33;0.67;;;;;;;;5116483;27;45649;-75
2021/08/06 11:04:30;;;;;;;;;2.00;2.00;;;;;;;;5117048;27;45494;-75
2021/08/06 11:06:56;;;;;;;;;1.00;1.00;;;;;;;;5113406;27;45856;-73
2021/08/06 11:09:27;;;;;;;;;0.00;0.00;;;;;;;;5109632;27;45328;-74
2021/08/06 11:11:56;;;;;;;;;0.00;0.00;;;;;;;;5115148;27;45955;-75
2021/08/06 11:14:28;;;;;;;;;0.00;0.00;;;;;;;;5113083;27;45450;-75
2021/08/06 11:16:56;;;;;;;;;0.00;0.00;;;;;;;;5110198;27;45217;-75
2021/08/06 11:19:26;;;;;;;;;0.00;0.00;;;;;;;;5103704;27;45384;-73
2021/08/06 11:21:51;;;;;;;;;0.00;0.00;;;;;;;;5103942;27;45215;-74
2021/08/06 11:24:17;;;;;;;;;1.33;0.00;;;;;;;;5102203;27;45199;-75
2021/08/06 11:26:49;;;;;;;;;0.33;0.33;;;;;;;;5101972;27;46326;-75
2021/08/06 11:29:15;;;;;;;;;0.67;0.67;;;;;;;;5102154;27;45356;-75
2021/08/06 11:31:41;;;;;;;;;1.00;1.00;;;;;;;;5124439;27;45682;-75
2021/08/06 11:34:06;;;;;;;;;0.00;0.00;;;;;;;;5119833;27;45437;-76
2021/08/06 11:36:33;;;;;;;;;0.67;0.00;;;;;;;;5123012;27;45668;-75
2021/08/06 11:39:03;;;;;;;;;0.67;0.00;;;;;;;;5121453;27;45949;-75
2021/08/06 11:41:31;;;;;;;;;1.33;1.00;;;;;;;;5125403;27;45328;-77
2021/08/06 11:43:56;;;;;;;;;0.00;0.00;;;;;;;;5121667;27;45227;-75
2021/08/06 11:46:22;;;;;;;;;0.00;0.00;;;;;;;;5120966;27;45249;-75
2021/08/06 11:48:51;;;;;;;;;0.67;0.67;;;;;;;;5122391;27;45272;-74
2021/08/06 11:51:17;;;;;;;;;1.00;1.00;;;;;;;;5101513;27;45383;-74
2021/08/06 11:53:42;;;;;;;;;1.00;0.00;;;;;;;;5110828;27;45387;-74
2021/08/06 11:56:15;;;;;;;;;1.00;1.00;;;;;;;;5121956;27;45409;-76
2021/08/06 11:58:40;;;;;;;;;1.33;1.00;;;;;;;;5123409;27;45240;-74
2021/08/06 12:01:07;;;;;;;;;1.00;1.00;;;;;;;;5122031;27;45163;-75
2021/08/06 12:03:45;;;;;;;;;1.00;1.00;;;;;;;;5106706;27;45515;-75
2021/08/06 12:06:11;;;;;;;;;0.67;0.67;;;;;;;;5114945;27;46189;-78
2021/08/06 12:08:36;;;;;;;;;6.00;6.00;;;;;;;;5117841;27;45655;-83
2021/08/06 12:11:05;;;;;;;;;5.00;4.67;;;;;;;;5118211;27;45327;-82
2021/08/06 12:13:30;;;;;;;;;2.00;2.00;;;;;;;;5109767;27;45363;-81
2021/08/06 12:16:04;;;;;;;;;3.67;2.00;;;;;;;;5108542;27;46106;-81
2021/08/06 12:18:30;;;;;;;;;13.33;12.67;;;;;;;;5113026;27;45353;-84
2021/08/06 12:20:57;;;;;;;;;1.00;1.00;;;;;;;;5111509;27;45284;-80
2021/08/06 12:23:22;;;;;;;;;1.67;1.00;;;;;;;;5115484;27;45401;-79
2021/08/06 12:26:17;;;;;;;;;1.67;1.67;;;;;;;;5109094;27;45326;-81
2021/08/06 12:29:03;;;;;;;;;6.00;6.00;;;;;;;;5058767;27;45726;-80
2021/08/06 12:31:29;;;;;;;;;2.00;1.00;;;;;;;;5118379;27;45523;-81
2021/08/06 12:34:08;;;;;;;;;4.33;3.67;;;;;;;;5120944;27;45356;-80
2021/08/06 12:36:34;;;;;;;;;2.00;2.00;;;;;;;;5105669;27;46019;-83
2021/08/06 12:39:10;;;;;;;;;5.00;5.00;;;;;;;;5100042;27;45447;-81
2021/08/06 12:41:36;;;;;;;;;5.00;5.00;;;;;;;;5100104;27;45292;-81
2021/08/06 12:44:15;;;;;;;;;0.33;0.33;;;;;;;;5100228;27;45373;-82
2021/08/06 12:46:40;;;;;;;;;11.67;10.67;;;;;;;;5100204;27;46065;-80
2021/08/06 12:49:09;;;;;;;;;8.67;8.00;;;;;;;;5102295;27;45347;-79
2021/08/06 12:51:36;;;;;;;;;6.00;6.00;;;;;;;;5118129;27;45188;-80
2021/08/06 12:54:02;;;;;;;;;19.33;16.67;;;;;;;;5115509;27;45428;-81
2021/08/06 12:56:27;;;;;;;;;20.67;20.33;;;;;;;;5112607;27;45506;-81
2021/08/06 12:59:11;;;;;;;;;8.00;6.00;;;;;;;;5117678;27;44749;-83
2021/08/06 13:01:37;;;;;;;;;3.00;3.00;;;;;;;;5117160;27;45364;-84
2021/08/06 13:04:03;;;;;;;;;0.00;0.00;;;;;;;;5104960;27;45483;-81
2021/08/06 13:06:44;;;;;;;;;26.33;26.00;;;;;;;;5106655;27;46196;-81
2021/08/06 13:09:09;;;;;;;;;32.33;29.33;;;;;;;;5101568;27;45844;-79
2021/08/06 13:11:35;;;;;;;;;8.33;7.00;;;;;;;;5116119;27;45440;-80
2021/08/06 13:14:00;;;;;;;;;13.00;13.00;;;;;;;;5108627;27;45529;-81
2021/08/06 13:16:26;;;;;;;;;18.00;16.00;;;;;;;;5112009;27;45381;-81
2021/08/06 13:18:52;;;;;;;;;32.33;29.00;;;;;;;;5109225;27;45597;-81
2021/08/06 13:21:17;;;;;;;;;6.00;5.67;;;;;;;;5117885;27;45317;-80
2021/08/06 13:23:43;;;;;;;;;1.67;1.67;;;;;;;;5106561;27;47212;-81
2021/08/06 13:26:09;;;;;;;;;4.00;3.00;;;;;;;;5109696;27;45797;-82
2021/08/06 13:28:35;;;;;;;;;5.67;5.67;;;;;;;;5103076;27;45342;-79
2021/08/06 13:31:01;;;;;;;;;5.67;5.00;;;;;;;;5112394;27;45284;-81
2021/08/06 13:33:26;;;;;;;;;7.67;6.33;;;;;;;;5113003;27;45604;-80
2021/08/06 13:35:52;;;;;;;;;6.67;6.67;;;;;;;;5114028;27;46102;-81
2021/08/06 13:38:18;;;;;;;;;3.00;3.00;;;;;;;;5105397;27;45658;-80
2021/08/06 13:40:43;;;;;;;;;5.00;4.33;;;;;;;;5118258;27;45487;-81
2021/08/06 13:43:09;;;;;;;;;1.00;1.00;;;;;;;;5115982;27;45210;-80
2021/08/06 13:45:34;;;;;;;;;1.00;1.00;;;;;;;;5109781;27;45295;-81
2021/08/06 13:47:59;;;;;;;;;0.67;0.67;;;;;;;;5107905;27;45550;-79
2021/08/06 13:50:25;;;;;;;;;1.67;0.00;;;;;;;;5120332;27;45344;-80
2021/08/06 13:52:50;;;;;;;;;0.00;0.00;;;;;;;;5120484;27;45590;-79
2021/08/06 13:55:16;;;;;;;;;0.00;0.00;;;;;;;;5119079;27;45540;-79
2021/08/06 13:57:41;;;;;;;;;0.67;0.67;;;;;;;;5123309;27;45383;-80
2021/08/06 14:00:07;;;;;;;;;0.67;0.67;;;;;;;;5120563;27;45427;-80
2021/08/06 14:02:33;;;;;;;;;0.00;0.00;;;;;;;;5123766;27;45315;-79
2021/08/06 14:04:58;;;;;;;;;0.00;0.00;;;;;;;;5123763;27;46150;-81
2021/08/06 14:07:24;;;;;;;;;2.33;0.33;;;;;;;;5123989;27;45432;-81
2021/08/06 14:09:49;;;;;;;;;0.67;0.67;;;;;;;;5123975;27;45465;-79
2021/08/06 14:12:15;;;;;;;;;0.00;0.00;;;;;;;;5123066;27;45321;-81
2021/08/06 14:14:40;;;;;;;;;0.00;0.00;;;;;;;;5123920;27;46049;-82
2021/08/06 14:17:06;;;;;;;;;0.00;0.00;;;;;;;;5125417;27;45279;-81
2021/08/06 14:19:31;;;;;;;;;0.00;0.00;;;;;;;;5123185;27;45396;-80
2021/08/06 14:21:57;;;;;;;;;0.00;0.00;;;;;;;;5121644;27;45483;-78
2021/08/06 14:24:22;;;;;;;;;0.00;0.00;;;;;;;;5124090;27;46048;-78
2021/08/06 14:26:47;;;;;;;;;0.00;0.00;;;;;;;;5117009;27;45638;-77
2021/08/06 14:29:13;;;;;;;;;0.00;0.00;;;;;;;;5113745;27;45282;-76
2021/08/06 14:31:39;;;;;;;;;0.00;0.00;;;;;;;;5117371;27;45602;-77
2021/08/06 14:34:04;;;;;;;;;0.00;0.00;;;;;;;;5122926;27;45980;-78
2021/08/06 14:36:31;;;;;;;;;0.00;0.00;;;;;;;;5115514;27;45334;-77
2021/08/06 14:38:56;;;;;;;;;0.00;0.00;;;;;;;;5113102;27;45425;-78
2021/08/06 14:41:21;;;;;;;;;0.00;0.00;;;;;;;;5110915;27;45516;-78